sensor_id;sensor_type;location;lat;lon;timestamp;temperature;humidity
7447;DHT22;3765;47.962;7.952;2022-09-24T00:01:51;14.30;75.50
7447;DHT22;3765;47.962;7.952;2022-09-24T00:04:19;14.30;75.50
7447;DHT22;3765;47.962;7.952;2022-09-24T00:06:52;14.30;75.50
7447;DHT22;3765;47.962;7.952;2022-09-24T00:09:21;14.20;75.50
7447;DHT22;3765;47.962;7.952;2022-09-24T00:11:50;14.20;75.70
7447;DHT22;3765;47.962;7.952;2022-09-24T00:14:19;14.20;75.70
7447;DHT22;3765;47.962;7.952;2022-09-24T00:16:47;14.20;75.70
7447;DHT22;3765;47.962;7.952;2022-09-24T00:19:15;14.30;75.80
7447;DHT22;3765;47.962;7.952;2022-09-24T00:21:44;14.30;75.80
7447;DHT22;3765;47.962;7.952;2022-09-24T00:24:15;14.30;75.90
7447;DHT22;3765;47.962;7.952;2022-09-24T00:26:57;14.20;75.90
7447;DHT22;3765;47.962;7.952;2022-09-24T00:29:26;14.10;76.00
7447;DHT22;3765;47.962;7.952;2022-09-24T00:31:54;14.10;76.10
7447;DHT22;3765;47.962;7.952;2022-09-24T00:34:22;14.10;76.30
7447;DHT22;3765;47.962;7.952;2022-09-24T00:36:50;14.10;76.40
7447;DHT22;3765;47.962;7.952;2022-09-24T00:39:20;14.00;76.50
7447;DHT22;3765;47.962;7.952;2022-09-24T00:41:48;14.00;76.60
7447;DHT22;3765;47.962;7.952;2022-09-24T00:44:51;13.90;76.60
7447;DHT22;3765;47.962;7.952;2022-09-24T00:47:31;13.90;76.90
7447;DHT22;3765;47.962;7.952;2022-09-24T00:50:05;14.00;76.90
7447;DHT22;3765;47.962;7.952;2022-09-24T00:52:37;14.00;77.10
7447;DHT22;3765;47.962;7.952;2022-09-24T00:55:09;14.00;77.10
7447;DHT22;3765;47.962;7.952;2022-09-24T00:57:39;14.00;77.10
7447;DHT22;3765;47.962;7.952;2022-09-24T01:00:09;14.00;77.20
7447;DHT22;3765;47.962;7.952;2022-09-24T01:02:38;14.00;77.10
7447;DHT22;3765;47.962;7.952;2022-09-24T01:05:08;14.10;77.30
7447;DHT22;3765;47.962;7.952;2022-09-24T01:07:37;14.10;77.20
7447;DHT22;3765;47.962;7.952;2022-09-24T01:10:05;14.00;77.30
7447;DHT22;3765;47.962;7.952;2022-09-24T01:12:40;14.10;77.40
7447;DHT22;3765;47.962;7.952;2022-09-24T01:15:18;14.10;77.30
7447;DHT22;3765;47.962;7.952;2022-09-24T01:17:53;14.10;77.40
7447;DHT22;3765;47.962;7.952;2022-09-24T01:20:36;14.10;77.40
7447;DHT22;3765;47.962;7.952;2022-09-24T01:23:20;14.10;77.50
7447;DHT22;3765;47.962;7.952;2022-09-24T01:26:06;14.00;77.40
7447;DHT22;3765;47.962;7.952;2022-09-24T01:28:50;14.10;77.50
7447;DHT22;3765;47.962;7.952;2022-09-24T01:31:27;14.10;77.40
7447;DHT22;3765;47.962;7.952;2022-09-24T01:33:58;14.20;77.40
7447;DHT22;3765;47.962;7.952;2022-09-24T01:36:28;14.10;77.40
7447;DHT22;3765;47.962;7.952;2022-09-24T01:38:57;14.10;77.40
7447;DHT22;3765;47.962;7.952;2022-09-24T01:41:26;14.10;77.40
7447;DHT22;3765;47.962;7.952;2022-09-24T01:43:55;14.10;77.50
7447;DHT22;3765;47.962;7.952;2022-09-24T01:46:27;14.10;77.60
7447;DHT22;3765;47.962;7.952;2022-09-24T01:48:57;14.00;77.60
7447;DHT22;3765;47.962;7.952;2022-09-24T01:51:30;13.90;77.80
7447;DHT22;3765;47.962;7.952;2022-09-24T01:54:02;13.90;77.80
7447;DHT22;3765;47.962;7.952;2022-09-24T01:56:37;13.90;78.10
7447;DHT22;3765;47.962;7.952;2022-09-24T01:59:10;13.90;78.20
7447;DHT22;3765;47.962;7.952;2022-09-24T02:01:44;14.00;78.30
7447;DHT22;3765;47.962;7.952;2022-09-24T02:04:18;14.00;78.30
7447;DHT22;3765;47.962;7.952;2022-09-24T02:06:52;14.00;78.20
7447;DHT22;3765;47.962;7.952;2022-09-24T02:09:30;14.00;78.40
7447;DHT22;3765;47.962;7.952;2022-09-24T02:12:03;13.90;78.60
7447;DHT22;3765;47.962;7.952;2022-09-24T02:14:36;14.00;78.70
7447;DHT22;3765;47.962;7.952;2022-09-24T02:17:09;14.00;78.80
7447;DHT22;3765;47.962;7.952;2022-09-24T02:19:39;14.10;78.90
7447;DHT22;3765;47.962;7.952;2022-09-24T02:22:10;14.10;78.90
7447;DHT22;3765;47.962;7.952;2022-09-24T02:24:44;14.00;78.90
7447;DHT22;3765;47.962;7.952;2022-09-24T02:27:15;14.00;79.00
7447;DHT22;3765;47.962;7.952;2022-09-24T02:29:43;14.00;79.10
7447;DHT22;3765;47.962;7.952;2022-09-24T02:32:17;14.00;79.10
7447;DHT22;3765;47.962;7.952;2022-09-24T02:34:57;13.90;79.20
7447;DHT22;3765;47.962;7.952;2022-09-24T02:37:32;13.90;79.40
7447;DHT22;3765;47.962;7.952;2022-09-24T02:40:01;13.90;79.40
7447;DHT22;3765;47.962;7.952;2022-09-24T02:42:30;14.00;79.50
7447;DHT22;3765;47.962;7.952;2022-09-24T02:44:58;14.00;79.40
7447;DHT22;3765;47.962;7.952;2022-09-24T02:47:28;13.90;79.60
7447;DHT22;3765;47.962;7.952;2022-09-24T02:49:56;13.90;79.70
7447;DHT22;3765;47.962;7.952;2022-09-24T02:52:24;13.90;79.90
7447;DHT22;3765;47.962;7.952;2022-09-24T02:54:52;13.90;80.00
7447;DHT22;3765;47.962;7.952;2022-09-24T02:57:20;14.00;79.90
7447;DHT22;3765;47.962;7.952;2022-09-24T02:59:48;14.00;80.00
7447;DHT22;3765;47.962;7.952;2022-09-24T03:02:16;14.00;80.10
7447;DHT22;3765;47.962;7.952;2022-09-24T03:04:46;14.00;80.10
7447;DHT22;3765;47.962;7.952;2022-09-24T03:07:14;14.00;80.20
7447;DHT22;3765;47.962;7.952;2022-09-24T03:09:42;14.10;80.30
7447;DHT22;3765;47.962;7.952;2022-09-24T03:12:11;14.10;80.30
7447;DHT22;3765;47.962;7.952;2022-09-24T03:14:39;14.10;80.40
7447;DHT22;3765;47.962;7.952;2022-09-24T03:17:07;14.10;80.40
7447;DHT22;3765;47.962;7.952;2022-09-24T03:19:35;14.10;80.50
7447;DHT22;3765;47.962;7.952;2022-09-24T03:22:05;14.10;80.50
7447;DHT22;3765;47.962;7.952;2022-09-24T03:24:33;14.10;80.60
7447;DHT22;3765;47.962;7.952;2022-09-24T03:27:01;14.10;80.70
7447;DHT22;3765;47.962;7.952;2022-09-24T03:29:29;14.10;80.80
7447;DHT22;3765;47.962;7.952;2022-09-24T03:32:15;14.10;80.80
7447;DHT22;3765;47.962;7.952;2022-09-24T03:34:43;14.00;80.80
7447;DHT22;3765;47.962;7.952;2022-09-24T03:37:12;14.00;81.00
7447;DHT22;3765;47.962;7.952;2022-09-24T03:39:40;13.90;81.00
7447;DHT22;3765;47.962;7.952;2022-09-24T03:42:08;14.00;81.00
7447;DHT22;3765;47.962;7.952;2022-09-24T03:44:37;14.00;81.10
7447;DHT22;3765;47.962;7.952;2022-09-24T03:47:05;14.00;81.20
7447;DHT22;3765;47.962;7.952;2022-09-24T03:49:33;14.00;81.30
7447;DHT22;3765;47.962;7.952;2022-09-24T03:52:01;14.00;81.30
7447;DHT22;3765;47.962;7.952;2022-09-24T03:54:31;14.00;81.30
7447;DHT22;3765;47.962;7.952;2022-09-24T03:56:59;14.00;81.30
7447;DHT22;3765;47.962;7.952;2022-09-24T03:59:27;13.90;81.30
7447;DHT22;3765;47.962;7.952;2022-09-24T04:01:55;13.90;81.40
7447;DHT22;3765;47.962;7.952;2022-09-24T04:04:23;13.90;81.50
7447;DHT22;3765;47.962;7.952;2022-09-24T04:06:51;13.90;81.60
7447;DHT22;3765;47.962;7.952;2022-09-24T04:09:19;13.90;81.60
7447;DHT22;3765;47.962;7.952;2022-09-24T04:11:49;13.90;81.60
7447;DHT22;3765;47.962;7.952;2022-09-24T04:14:18;13.90;81.70
7447;DHT22;3765;47.962;7.952;2022-09-24T04:16:46;13.80;81.80
7447;DHT22;3765;47.962;7.952;2022-09-24T04:19:14;13.80;81.80
7447;DHT22;3765;47.962;7.952;2022-09-24T04:21:43;13.90;81.90
7447;DHT22;3765;47.962;7.952;2022-09-24T04:24:11;13.90;81.90
7447;DHT22;3765;47.962;7.952;2022-09-24T04:26:40;13.90;81.90
7447;DHT22;3765;47.962;7.952;2022-09-24T04:29:09;13.90;82.00
7447;DHT22;3765;47.962;7.952;2022-09-24T04:31:39;13.80;82.00
7447;DHT22;3765;47.962;7.952;2022-09-24T04:34:08;13.80;82.10
7447;DHT22;3765;47.962;7.952;2022-09-24T04:36:36;13.80;82.10
7447;DHT22;3765;47.962;7.952;2022-09-24T04:39:04;13.80;82.10
7447;DHT22;3765;47.962;7.952;2022-09-24T04:41:32;13.80;82.30
7447;DHT22;3765;47.962;7.952;2022-09-24T04:44:01;13.80;82.30
7447;DHT22;3765;47.962;7.952;2022-09-24T04:46:32;13.90;82.30
7447;DHT22;3765;47.962;7.952;2022-09-24T04:49:00;13.90;82.30
7447;DHT22;3765;47.962;7.952;2022-09-24T04:51:28;13.90;82.30
7447;DHT22;3765;47.962;7.952;2022-09-24T04:54:01;14.00;82.30
7447;DHT22;3765;47.962;7.952;2022-09-24T04:56:29;13.90;82.20
7447;DHT22;3765;47.962;7.952;2022-09-24T04:58:58;13.90;82.40
7447;DHT22;3765;47.962;7.952;2022-09-24T05:01:26;13.80;82.40
7447;DHT22;3765;47.962;7.952;2022-09-24T05:03:56;13.80;82.40
7447;DHT22;3765;47.962;7.952;2022-09-24T05:06:24;13.70;82.50
7447;DHT22;3765;47.962;7.952;2022-09-24T05:08:52;13.70;82.60
7447;DHT22;3765;47.962;7.952;2022-09-24T05:11:20;13.70;82.60
7447;DHT22;3765;47.962;7.952;2022-09-24T05:13:48;13.80;82.60
7447;DHT22;3765;47.962;7.952;2022-09-24T05:16:16;13.70;82.60
7447;DHT22;3765;47.962;7.952;2022-09-24T05:18:44;13.70;82.70
7447;DHT22;3765;47.962;7.952;2022-09-24T05:21:14;13.70;82.70
7447;DHT22;3765;47.962;7.952;2022-09-24T05:23:42;13.70;82.80
7447;DHT22;3765;47.962;7.952;2022-09-24T05:26:10;13.70;82.70
7447;DHT22;3765;47.962;7.952;2022-09-24T05:28:56;13.70;82.80
7447;DHT22;3765;47.962;7.952;2022-09-24T05:31:24;13.80;82.80
7447;DHT22;3765;47.962;7.952;2022-09-24T05:33:52;13.80;82.80
7447;DHT22;3765;47.962;7.952;2022-09-24T05:36:21;13.90;82.70
7447;DHT22;3765;47.962;7.952;2022-09-24T05:38:52;13.90;82.60
7447;DHT22;3765;47.962;7.952;2022-09-24T05:41:20;13.90;82.60
7447;DHT22;3765;47.962;7.952;2022-09-24T05:43:49;13.80;82.80
7447;DHT22;3765;47.962;7.952;2022-09-24T05:46:17;13.80;82.80
7447;DHT22;3765;47.962;7.952;2022-09-24T05:48:45;13.80;82.80
7447;DHT22;3765;47.962;7.952;2022-09-24T05:51:13;13.80;82.80
7447;DHT22;3765;47.962;7.952;2022-09-24T05:53:42;13.80;82.70
7447;DHT22;3765;47.962;7.952;2022-09-24T05:56:10;13.80;82.80
7447;DHT22;3765;47.962;7.952;2022-09-24T05:58:39;13.80;82.90
7447;DHT22;3765;47.962;7.952;2022-09-24T06:01:07;13.80;82.90
7447;DHT22;3765;47.962;7.952;2022-09-24T06:03:36;13.80;83.00
7447;DHT22;3765;47.962;7.952;2022-09-24T06:06:05;13.80;82.90
7447;DHT22;3765;47.962;7.952;2022-09-24T06:08:33;13.80;82.90
7447;DHT22;3765;47.962;7.952;2022-09-24T06:11:04;13.90;82.80
7447;DHT22;3765;47.962;7.952;2022-09-24T06:13:34;13.80;82.90
7447;DHT22;3765;47.962;7.952;2022-09-24T06:16:03;13.80;82.90
7447;DHT22;3765;47.962;7.952;2022-09-24T06:18:32;13.80;83.10
7447;DHT22;3765;47.962;7.952;2022-09-24T06:21:02;13.80;83.10
7447;DHT22;3765;47.962;7.952;2022-09-24T06:23:31;13.80;83.20
7447;DHT22;3765;47.962;7.952;2022-09-24T06:25:59;13.80;83.20
7447;DHT22;3765;47.962;7.952;2022-09-24T06:28:29;14.00;83.20
7447;DHT22;3765;47.962;7.952;2022-09-24T06:30:58;14.00;83.30
7447;DHT22;3765;47.962;7.952;2022-09-24T06:33:27;13.90;83.20
7447;DHT22;3765;47.962;7.952;2022-09-24T06:35:59;14.00;83.20
7447;DHT22;3765;47.962;7.952;2022-09-24T06:38:28;14.10;83.20
7447;DHT22;3765;47.962;7.952;2022-09-24T06:40:58;14.10;83.20
7447;DHT22;3765;47.962;7.952;2022-09-24T06:43:28;14.10;83.20
7447;DHT22;3765;47.962;7.952;2022-09-24T06:45:58;14.20;83.10
7447;DHT22;3765;47.962;7.952;2022-09-24T06:48:26;14.30;83.10
7447;DHT22;3765;47.962;7.952;2022-09-24T06:50:55;14.30;83.00
7447;DHT22;3765;47.962;7.952;2022-09-24T06:53:23;14.30;83.00
7447;DHT22;3765;47.962;7.952;2022-09-24T06:55:55;14.30;82.90
7447;DHT22;3765;47.962;7.952;2022-09-24T06:58:24;14.40;82.80
7447;DHT22;3765;47.962;7.952;2022-09-24T07:00:56;14.50;82.70
7447;DHT22;3765;47.962;7.952;2022-09-24T07:03:25;14.60;82.60
7447;DHT22;3765;47.962;7.952;2022-09-24T07:05:54;14.70;82.60
7447;DHT22;3765;47.962;7.952;2022-09-24T07:08:23;14.70;82.50
7447;DHT22;3765;47.962;7.952;2022-09-24T07:10:51;14.70;82.40
7447;DHT22;3765;47.962;7.952;2022-09-24T07:13:19;14.70;82.30
7447;DHT22;3765;47.962;7.952;2022-09-24T07:15:49;14.70;82.40
7447;DHT22;3765;47.962;7.952;2022-09-24T07:18:19;14.80;82.30
7447;DHT22;3765;47.962;7.952;2022-09-24T07:20:51;14.70;82.30
7447;DHT22;3765;47.962;7.952;2022-09-24T07:23:20;14.80;82.30
7447;DHT22;3765;47.962;7.952;2022-09-24T07:25:48;14.80;82.10
7447;DHT22;3765;47.962;7.952;2022-09-24T07:28:17;14.90;82.10
7447;DHT22;3765;47.962;7.952;2022-09-24T07:30:45;15.00;82.00
7447;DHT22;3765;47.962;7.952;2022-09-24T07:33:13;15.00;81.90
7447;DHT22;3765;47.962;7.952;2022-09-24T07:35:43;15.00;82.10
7447;DHT22;3765;47.962;7.952;2022-09-24T07:38:11;15.10;82.00
7447;DHT22;3765;47.962;7.952;2022-09-24T07:40:39;15.20;82.20
7447;DHT22;3765;47.962;7.952;2022-09-24T07:43:08;15.30;81.90
7447;DHT22;3765;47.962;7.952;2022-09-24T07:45:39;15.50;81.70
7447;DHT22;3765;47.962;7.952;2022-09-24T07:48:09;15.50;81.50
7447;DHT22;3765;47.962;7.952;2022-09-24T07:50:39;15.50;81.30
7447;DHT22;3765;47.962;7.952;2022-09-24T07:53:09;15.40;81.10
7447;DHT22;3765;47.962;7.952;2022-09-24T07:55:38;15.50;81.30
7447;DHT22;3765;47.962;7.952;2022-09-24T07:58:09;15.50;81.30
7447;DHT22;3765;47.962;7.952;2022-09-24T08:00:38;15.50;81.20
7447;DHT22;3765;47.962;7.952;2022-09-24T08:03:06;15.50;81.30
7447;DHT22;3765;47.962;7.952;2022-09-24T08:05:34;15.60;81.20
7447;DHT22;3765;47.962;7.952;2022-09-24T08:08:03;15.50;81.10
7447;DHT22;3765;47.962;7.952;2022-09-24T08:10:33;15.60;80.90
7447;DHT22;3765;47.962;7.952;2022-09-24T08:13:01;15.70;80.70
7447;DHT22;3765;47.962;7.952;2022-09-24T08:15:29;15.80;80.70
7447;DHT22;3765;47.962;7.952;2022-09-24T08:18:00;15.80;80.50
7447;DHT22;3765;47.962;7.952;2022-09-24T08:20:29;15.90;80.30
7447;DHT22;3765;47.962;7.952;2022-09-24T08:22:59;15.90;80.20
7447;DHT22;3765;47.962;7.952;2022-09-24T08:25:28;16.00;80.40
7447;DHT22;3765;47.962;7.952;2022-09-24T08:28:01;15.90;80.50
7447;DHT22;3765;47.962;7.952;2022-09-24T08:30:30;15.90;80.40
7447;DHT22;3765;47.962;7.952;2022-09-24T08:32:59;15.80;80.30
7447;DHT22;3765;47.962;7.952;2022-09-24T08:35:27;15.80;80.40
7447;DHT22;3765;47.962;7.952;2022-09-24T08:37:55;15.80;80.70
7447;DHT22;3765;47.962;7.952;2022-09-24T08:40:28;15.90;80.70
7447;DHT22;3765;47.962;7.952;2022-09-24T08:43:04;16.00;80.70
7447;DHT22;3765;47.962;7.952;2022-09-24T08:45:40;16.20;80.30
7447;DHT22;3765;47.962;7.952;2022-09-24T08:48:31;16.20;80.00
7447;DHT22;3765;47.962;7.952;2022-09-24T08:51:03;16.30;79.80
7447;DHT22;3765;47.962;7.952;2022-09-24T08:53:39;16.30;79.70
7447;DHT22;3765;47.962;7.952;2022-09-24T08:56:09;16.40;79.40
7447;DHT22;3765;47.962;7.952;2022-09-24T08:58:45;16.50;79.10
7447;DHT22;3765;47.962;7.952;2022-09-24T09:01:22;16.50;79.00
7447;DHT22;3765;47.962;7.952;2022-09-24T09:03:54;16.40;78.90
7447;DHT22;3765;47.962;7.952;2022-09-24T09:06:42;16.30;78.90
7447;DHT22;3765;47.962;7.952;2022-09-24T09:09:14;16.60;78.90
7447;DHT22;3765;47.962;7.952;2022-09-24T09:11:47;16.80;78.80
7447;DHT22;3765;47.962;7.952;2022-09-24T09:14:19;16.80;78.60
7447;DHT22;3765;47.962;7.952;2022-09-24T09:16:51;17.00;78.60
7447;DHT22;3765;47.962;7.952;2022-09-24T09:19:24;17.00;78.30
7447;DHT22;3765;47.962;7.952;2022-09-24T09:21:57;17.10;78.20
7447;DHT22;3765;47.962;7.952;2022-09-24T09:24:35;17.10;78.10
7447;DHT22;3765;47.962;7.952;2022-09-24T09:27:11;17.10;77.70
7447;DHT22;3765;47.962;7.952;2022-09-24T09:29:42;17.20;77.70
7447;DHT22;3765;47.962;7.952;2022-09-24T09:32:20;17.20;77.50
7447;DHT22;3765;47.962;7.952;2022-09-24T09:34:54;17.20;77.30
7447;DHT22;3765;47.962;7.952;2022-09-24T09:37:28;17.20;77.40
7447;DHT22;3765;47.962;7.952;2022-09-24T09:40:10;17.10;77.30
7447;DHT22;3765;47.962;7.952;2022-09-24T09:42:44;17.10;77.20
7447;DHT22;3765;47.962;7.952;2022-09-24T09:45:25;17.10;76.90
7447;DHT22;3765;47.962;7.952;2022-09-24T09:47:57;17.30;76.80
7447;DHT22;3765;47.962;7.952;2022-09-24T09:50:26;17.40;76.40
7447;DHT22;3765;47.962;7.952;2022-09-24T09:52:55;17.60;76.30
7447;DHT22;3765;47.962;7.952;2022-09-24T09:55:26;17.70;76.10
7447;DHT22;3765;47.962;7.952;2022-09-24T09:58:09;17.60;75.90
7447;DHT22;3765;47.962;7.952;2022-09-24T10:00:39;17.70;75.90
7447;DHT22;3765;47.962;7.952;2022-09-24T10:03:23;17.80;75.90
7447;DHT22;3765;47.962;7.952;2022-09-24T10:05:57;17.90;76.10
7447;DHT22;3765;47.962;7.952;2022-09-24T10:08:26;17.90;75.80
7447;DHT22;3765;47.962;7.952;2022-09-24T10:10:55;18.00;75.40
7447;DHT22;3765;47.962;7.952;2022-09-24T10:13:24;17.90;75.10
7447;DHT22;3765;47.962;7.952;2022-09-24T10:15:55;18.00;75.20
7447;DHT22;3765;47.962;7.952;2022-09-24T10:18:29;18.10;75.40
7447;DHT22;3765;47.962;7.952;2022-09-24T10:21:00;18.10;75.00
7447;DHT22;3765;47.962;7.952;2022-09-24T10:23:34;18.20;74.80
7447;DHT22;3765;47.962;7.952;2022-09-24T10:26:04;18.30;74.70
7447;DHT22;3765;47.962;7.952;2022-09-24T10:28:34;18.40;74.20
7447;DHT22;3765;47.962;7.952;2022-09-24T10:31:24;18.30;73.90
7447;DHT22;3765;47.962;7.952;2022-09-24T10:33:55;18.50;73.90
7447;DHT22;3765;47.962;7.952;2022-09-24T10:36:28;18.50;73.30
7447;DHT22;3765;47.962;7.952;2022-09-24T10:39:07;18.50;73.00
7447;DHT22;3765;47.962;7.952;2022-09-24T10:41:36;18.40;72.50
7447;DHT22;3765;47.962;7.952;2022-09-24T10:44:09;18.10;72.40
7447;DHT22;3765;47.962;7.952;2022-09-24T10:46:49;18.10;72.80
7447;DHT22;3765;47.962;7.952;2022-09-24T10:49:36;17.90;72.70
7447;DHT22;3765;47.962;7.952;2022-09-24T10:52:12;17.70;73.20
7447;DHT22;3765;47.962;7.952;2022-09-24T10:54:56;17.80;73.70
7447;DHT22;3765;47.962;7.952;2022-09-24T10:57:30;18.00;73.40
7447;DHT22;3765;47.962;7.952;2022-09-24T11:00:07;18.10;73.50
7447;DHT22;3765;47.962;7.952;2022-09-24T11:03:07;17.90;73.20
7447;DHT22;3765;47.962;7.952;2022-09-24T11:05:46;18.20;73.40
7447;DHT22;3765;47.962;7.952;2022-09-24T11:08:25;18.50;72.50
7447;DHT22;3765;47.962;7.952;2022-09-24T11:11:16;18.50;72.40
7447;DHT22;3765;47.962;7.952;2022-09-24T11:13:53;18.60;72.30
7447;DHT22;3765;47.962;7.952;2022-09-24T11:16:37;18.70;71.80
7447;DHT22;3765;47.962;7.952;2022-09-24T11:19:24;18.50;71.00
7447;DHT22;3765;47.962;7.952;2022-09-24T11:22:07;18.70;70.90
7447;DHT22;3765;47.962;7.952;2022-09-24T11:27:47;18.80;70.50
7447;DHT22;3765;47.962;7.952;2022-09-24T11:30:18;19.00;70.40
7447;DHT22;3765;47.962;7.952;2022-09-24T11:33:07;19.10;69.70
7447;DHT22;3765;47.962;7.952;2022-09-24T11:36:07;19.20;69.50
7447;DHT22;3765;47.962;7.952;2022-09-24T11:41:42;19.40;68.70
7447;DHT22;3765;47.962;7.952;2022-09-24T11:44:41;19.20;68.50
7447;DHT22;3765;47.962;7.952;2022-09-24T11:47:21;18.90;68.20
7447;DHT22;3765;47.962;7.952;2022-09-24T11:50:10;18.60;68.20
7447;DHT22;3765;47.962;7.952;2022-09-24T11:52:46;18.50;68.50
7447;DHT22;3765;47.962;7.952;2022-09-24T11:55:20;18.60;68.50
7447;DHT22;3765;47.962;7.952;2022-09-24T11:57:52;18.40;68.40
7447;DHT22;3765;47.962;7.952;2022-09-24T12:00:21;18.40;68.50
7447;DHT22;3765;47.962;7.952;2022-09-24T12:02:53;18.30;68.40
7447;DHT22;3765;47.962;7.952;2022-09-24T12:05:27;18.20;68.50
7447;DHT22;3765;47.962;7.952;2022-09-24T12:08:02;18.20;68.30
7447;DHT22;3765;47.962;7.952;2022-09-24T12:10:36;18.40;68.20
7447;DHT22;3765;47.962;7.952;2022-09-24T12:13:11;18.40;68.10
7447;DHT22;3765;47.962;7.952;2022-09-24T12:15:45;18.50;68.00
7447;DHT22;3765;47.962;7.952;2022-09-24T12:18:19;18.50;67.60
7447;DHT22;3765;47.962;7.952;2022-09-24T12:20:50;18.40;67.20
7447;DHT22;3765;47.962;7.952;2022-09-24T12:23:24;18.40;66.80
7447;DHT22;3765;47.962;7.952;2022-09-24T12:25:56;18.30;66.50
7447;DHT22;3765;47.962;7.952;2022-09-24T12:28:31;18.30;66.40
7447;DHT22;3765;47.962;7.952;2022-09-24T12:31:22;18.30;65.70
7447;DHT22;3765;47.962;7.952;2022-09-24T12:34:18;18.50;66.10
7447;DHT22;3765;47.962;7.952;2022-09-24T12:36:56;18.70;65.60
7447;DHT22;3765;47.962;7.952;2022-09-24T12:39:31;18.70;65.20
7447;DHT22;3765;47.962;7.952;2022-09-24T12:42:01;18.70;64.90
7447;DHT22;3765;47.962;7.952;2022-09-24T12:44:38;18.70;64.70
7447;DHT22;3765;47.962;7.952;2022-09-24T12:47:16;19.10;64.40
7447;DHT22;3765;47.962;7.952;2022-09-24T12:49:49;19.40;64.30
7447;DHT22;3765;47.962;7.952;2022-09-24T12:52:24;19.80;63.50
7447;DHT22;3765;47.962;7.952;2022-09-24T12:55:01;20.10;63.00
7447;DHT22;3765;47.962;7.952;2022-09-24T12:57:33;19.90;62.70
7447;DHT22;3765;47.962;7.952;2022-09-24T13:00:31;19.90;62.70
7447;DHT22;3765;47.962;7.952;2022-09-24T13:02:52;19.80;62.50
7447;DHT22;3765;47.962;7.952;2022-09-24T13:05:27;19.80;62.50
7447;DHT22;3765;47.962;7.952;2022-09-24T13:07:58;19.60;62.60
7447;DHT22;3765;47.962;7.952;2022-09-24T13:10:30;19.60;62.60
7447;DHT22;3765;47.962;7.952;2022-09-24T13:12:59;19.70;62.80
7447;DHT22;3765;47.962;7.952;2022-09-24T13:15:33;19.80;62.80
7447;DHT22;3765;47.962;7.952;2022-09-24T13:20:59;20.00;62.70
7447;DHT22;3765;47.962;7.952;2022-09-24T13:23:42;20.00;62.60
7447;DHT22;3765;47.962;7.952;2022-09-24T13:26:25;20.10;62.70
7447;DHT22;3765;47.962;7.952;2022-09-24T13:28:55;20.30;62.20
7447;DHT22;3765;47.962;7.952;2022-09-24T13:31:34;20.10;62.10
7447;DHT22;3765;47.962;7.952;2022-09-24T13:34:16;20.30;61.90
7447;DHT22;3765;47.962;7.952;2022-09-24T13:36:49;20.70;62.00
7447;DHT22;3765;47.962;7.952;2022-09-24T13:39:22;21.10;61.10
7447;DHT22;3765;47.962;7.952;2022-09-24T13:41:58;21.00;60.60
7447;DHT22;3765;47.962;7.952;2022-09-24T13:44:29;20.80;60.90
7447;DHT22;3765;47.962;7.952;2022-09-24T13:47:00;20.70;60.50
7447;DHT22;3765;47.962;7.952;2022-09-24T13:49:31;20.10;60.10
7447;DHT22;3765;47.962;7.952;2022-09-24T13:52:08;19.90;60.70
7447;DHT22;3765;47.962;7.952;2022-09-24T13:54:47;19.70;60.80
7447;DHT22;3765;47.962;7.952;2022-09-24T13:57:22;19.70;61.10
7447;DHT22;3765;47.962;7.952;2022-09-24T14:00:15;19.80;61.40
7447;DHT22;3765;47.962;7.952;2022-09-24T14:02:53;19.80;61.20
7447;DHT22;3765;47.962;7.952;2022-09-24T14:05:23;19.90;61.20
7447;DHT22;3765;47.962;7.952;2022-09-24T14:07:55;19.90;60.90
7447;DHT22;3765;47.962;7.952;2022-09-24T14:10:24;19.80;61.40
7447;DHT22;3765;47.962;7.952;2022-09-24T14:13:13;19.60;61.70
7447;DHT22;3765;47.962;7.952;2022-09-24T14:15:51;19.50;61.70
7447;DHT22;3765;47.962;7.952;2022-09-24T14:18:20;19.40;61.90
7447;DHT22;3765;47.962;7.952;2022-09-24T14:20:51;19.50;62.20
7447;DHT22;3765;47.962;7.952;2022-09-24T14:23:23;19.30;61.90
7447;DHT22;3765;47.962;7.952;2022-09-24T14:25:53;19.30;62.50
7447;DHT22;3765;47.962;7.952;2022-09-24T14:28:24;19.90;62.60
7447;DHT22;3765;47.962;7.952;2022-09-24T14:30:55;20.80;61.20
7447;DHT22;3765;47.962;7.952;2022-09-24T14:33:25;21.40;60.40
7447;DHT22;3765;47.962;7.952;2022-09-24T14:35:55;20.70;59.10
7447;DHT22;3765;47.962;7.952;2022-09-24T14:38:25;20.30;60.20
7447;DHT22;3765;47.962;7.952;2022-09-24T14:40:58;20.20;60.30
7447;DHT22;3765;47.962;7.952;2022-09-24T14:43:34;20.20;60.10
7447;DHT22;3765;47.962;7.952;2022-09-24T14:46:07;19.80;60.10
7447;DHT22;3765;47.962;7.952;2022-09-24T14:48:36;19.70;60.50
7447;DHT22;3765;47.962;7.952;2022-09-24T14:51:04;19.60;60.70
7447;DHT22;3765;47.962;7.952;2022-09-24T14:53:35;19.60;60.50
7447;DHT22;3765;47.962;7.952;2022-09-24T14:56:17;19.70;60.40
7447;DHT22;3765;47.962;7.952;2022-09-24T14:58:47;19.80;60.30
7447;DHT22;3765;47.962;7.952;2022-09-24T15:01:17;19.70;60.00
7447;DHT22;3765;47.962;7.952;2022-09-24T15:03:48;19.80;59.80
7447;DHT22;3765;47.962;7.952;2022-09-24T15:06:19;20.00;59.30
7447;DHT22;3765;47.962;7.952;2022-09-24T15:08:56;19.80;59.80
7447;DHT22;3765;47.962;7.952;2022-09-24T15:11:27;19.50;60.30
7447;DHT22;3765;47.962;7.952;2022-09-24T15:14:00;19.50;60.40
7447;DHT22;3765;47.962;7.952;2022-09-24T15:16:31;19.30;60.70
7447;DHT22;3765;47.962;7.952;2022-09-24T15:19:15;19.30;60.90
7447;DHT22;3765;47.962;7.952;2022-09-24T15:21:46;19.30;61.00
7447;DHT22;3765;47.962;7.952;2022-09-24T15:24:16;19.50;61.50
7447;DHT22;3765;47.962;7.952;2022-09-24T15:26:47;20.40;60.70
7447;DHT22;3765;47.962;7.952;2022-09-24T15:29:19;20.40;59.60
7447;DHT22;3765;47.962;7.952;2022-09-24T15:31:49;20.20;59.90
7447;DHT22;3765;47.962;7.952;2022-09-24T15:34:18;20.30;60.20
7447;DHT22;3765;47.962;7.952;2022-09-24T15:36:46;20.80;59.70
7447;DHT22;3765;47.962;7.952;2022-09-24T15:39:16;20.80;58.80
7447;DHT22;3765;47.962;7.952;2022-09-24T15:41:45;20.60;58.60
7447;DHT22;3765;47.962;7.952;2022-09-24T15:44:20;20.20;58.00
7447;DHT22;3765;47.962;7.952;2022-09-24T15:46:54;19.60;58.50
7447;DHT22;3765;47.962;7.952;2022-09-24T15:49:22;19.60;59.20
7447;DHT22;3765;47.962;7.952;2022-09-24T15:51:54;19.30;59.20
7447;DHT22;3765;47.962;7.952;2022-09-24T15:54:23;18.90;59.70
7447;DHT22;3765;47.962;7.952;2022-09-24T15:56:52;18.80;60.20
7447;DHT22;3765;47.962;7.952;2022-09-24T15:59:21;18.70;60.60
7447;DHT22;3765;47.962;7.952;2022-09-24T16:01:51;18.60;60.70
7447;DHT22;3765;47.962;7.952;2022-09-24T16:04:21;18.70;60.90
7447;DHT22;3765;47.962;7.952;2022-09-24T16:06:49;18.80;60.90
7447;DHT22;3765;47.962;7.952;2022-09-24T16:09:17;18.70;61.00
7447;DHT22;3765;47.962;7.952;2022-09-24T16:11:46;18.60;61.10
7447;DHT22;3765;47.962;7.952;2022-09-24T16:14:14;18.40;61.20
7447;DHT22;3765;47.962;7.952;2022-09-24T16:16:43;18.30;61.70
7447;DHT22;3765;47.962;7.952;2022-09-24T16:19:12;18.30;62.40
7447;DHT22;3765;47.962;7.952;2022-09-24T16:21:40;18.30;62.90
7447;DHT22;3765;47.962;7.952;2022-09-24T16:24:08;18.00;62.90
7447;DHT22;3765;47.962;7.952;2022-09-24T16:26:36;17.80;63.00
7447;DHT22;3765;47.962;7.952;2022-09-24T16:29:05;17.80;63.40
7447;DHT22;3765;47.962;7.952;2022-09-24T16:31:35;17.70;63.50
7447;DHT22;3765;47.962;7.952;2022-09-24T16:34:05;17.60;63.60
7447;DHT22;3765;47.962;7.952;2022-09-24T16:36:33;17.50;63.60
7447;DHT22;3765;47.962;7.952;2022-09-24T16:39:01;17.40;63.70
7447;DHT22;3765;47.962;7.952;2022-09-24T16:41:30;17.30;64.00
7447;DHT22;3765;47.962;7.952;2022-09-24T16:44:00;17.30;64.00